Stations météo

Publicité
Formigueres, France (7737): Température de l'air & dewpoint: 14.06.2018 09:00:00 - 20.06.2018 09:00:00 (CEST)Formigueres, France (7737): Vitesse du vent & gusts: 14.06.2018 09:00:00 - 20.06.2018 09:00:00 (CEST)Formigueres, France (7737): Direction du vent: 14.06.2018 09:00:00 - 20.06.2018 09:00:00 (CEST)Formigueres, France (7737): Quantités de précipitations: 14.06.2018 09:00:00 - 20.06.2018 09:00:00 (CEST)
Date & Time tt [°C] td [°C] ff [km/h] ff [knt] fx [km/h] fx [knt] dd rr [mm]
20.06.2018 09:00:00 - - - - - - - -
20.06.2018 08:00:00 15,8 6,0 16 9 28 15 S -
20.06.2018 07:00:00 10,5 4,8 9 5 21 11 SW 0,0
20.06.2018 06:00:00 9,3 3,9 9 5 18 10 WSW 0,0
20.06.2018 05:00:00 10,2 5,8 9 5 18 10 SW 0,0
20.06.2018 04:00:00 10,9 8,8 11 6 21 11 WSW 0,0
20.06.2018 03:00:00 10,5 8,8 18 10 24 13 WSW 0,0
20.06.2018 02:00:00 10,6 9,5 13 7 21 11 WSW -
20.06.2018 01:00:00 9,5 7,3 5 3 15 8 WSW 0,0
20.06.2018 00:00:00 11,1 8,8 11 6 18 10 WSW 0,0
19.06.2018 23:00:00 12,0 10,1 13 7 18 10 WSW 0,0
19.06.2018 22:00:00 13,2 10,9 8 4 11 6 W 0,0
19.06.2018 21:00:00 14,8 11,8 4 2 16 9 N 0,0
19.06.2018 20:00:00 17,6 13,1 13 7 26 14 N -
19.06.2018 19:00:00 19,7 13,8 16 9 28 15 NNE 0,0
19.06.2018 18:00:00 20,3 14,4 16 9 29 16 NNE 0,0
19.06.2018 17:00:00 19,9 14,0 18 10 35 19 NNE 0,0
19.06.2018 16:00:00 19,6 13,8 22 12 35 19 N 0,0
19.06.2018 15:00:00 20,0 13,7 22 12 39 21 N 0,0
19.06.2018 14:00:00 19,6 13,5 21 11 34 18 NNE -
19.06.2018 13:00:00 18,8 12,5 18 10 34 18 NNE 0,0
19.06.2018 12:00:00 17,8 10,9 18 10 31 17 NNE 0,0
19.06.2018 11:00:00 16,8 8,7 16 9 35 19 NNE 0,0
19.06.2018 10:00:00 15,6 7,1 18 10 29 16 N 0,0
19.06.2018 09:00:00 14,3 8,3 15 8 28 15 N 0,0
19.06.2018 08:00:00 11,7 8,4 13 7 29 16 NNW -
19.06.2018 07:00:00 8,4 6,7 11 6 26 14 NW 0,0
19.06.2018 06:00:00 8,4 7,3 13 7 29 16 N 0,0
19.06.2018 05:00:00 8,4 6,9 15 8 31 17 NNW 0,0
19.06.2018 04:00:00 8,9 7,2 13 7 31 17 NW 0,0
19.06.2018 03:00:00 9,3 8,1 15 8 31 17 N 0,0
19.06.2018 02:00:00 9,5 7,4 16 9 31 17 N -
19.06.2018 01:00:00 - - - - - - - -
19.06.2018 00:00:00 10,2 8,8 13 7 31 17 N 0,0
18.06.2018 23:00:00 10,2 8,8 18 10 35 19 N 0,0
18.06.2018 22:00:00 10,6 9,5 21 11 35 19 N 0,0
18.06.2018 21:00:00 10,8 9,2 18 10 34 18 N 0,0
18.06.2018 20:00:00 12,0 9,7 18 10 35 19 N -
18.06.2018 19:00:00 14,0 10,2 18 10 34 18 N 0,0
18.06.2018 18:00:00 12,6 10,1 24 13 41 22 N 0,0
18.06.2018 17:00:00 16,3 11,0 22 12 44 24 N 0,0
18.06.2018 16:00:00 17,2 10,8 24 13 42 23 NNE 0,0
18.06.2018 15:00:00 17,6 10,9 24 13 48 26 NNE 0,0
18.06.2018 14:00:00 16,9 10,7 24 13 48 26 NNE -
18.06.2018 13:00:00 15,8 9,0 29 16 50 27 NNE 0,0
18.06.2018 12:00:00 14,8 7,3 29 16 54 29 N 0,0
18.06.2018 11:00:00 14,5 6,1 28 15 46 25 NNE 0,0
18.06.2018 10:00:00 14,3 4,6 22 12 41 22 NNE 0,0
18.06.2018 09:00:00 12,5 5,6 18 10 42 23 N 0,0
18.06.2018 08:00:00 12,7 6,3 16 9 37 20 NNW -
18.06.2018 07:00:00 8,0 4,9 16 9 29 16 NNW 0,0
18.06.2018 06:00:00 6,4 4,4 8 4 15 8 WNW 0,0
18.06.2018 05:00:00 6,6 3,7 4 2 26 14 WSW 0,0
18.06.2018 04:00:00 8,3 4,9 16 9 31 17 NNW 0,0
18.06.2018 03:00:00 7,3 4,6 13 7 29 16 N 0,0
18.06.2018 02:00:00 8,0 4,9 15 8 31 17 N -
18.06.2018 01:00:00 7,9 5,2 8 4 34 18 S 0,0
18.06.2018 00:00:00 7,7 6,0 22 12 35 19 N 0,0
17.06.2018 23:00:00 7,7 5,7 11 6 35 19 N 0,0
17.06.2018 22:00:00 8,4 6,7 22 12 41 22 NNE 0,0
17.06.2018 21:00:00 9,8 8,2 18 10 42 23 NNE 0,0
17.06.2018 20:00:00 10,9 7,8 18 10 41 22 N -
17.06.2018 19:00:00 13,6 9,4 22 12 37 20 N 0,0
17.06.2018 18:00:00 13,3 10,1 24 13 48 26 N 0,0
17.06.2018 17:00:00 14,2 10,6 35 19 55 30 N 0,0
17.06.2018 16:00:00 15,4 10,2 29 16 52 28 NNE 0,0
17.06.2018 15:00:00 15,7 10,0 29 16 55 30 NNE 0,0
17.06.2018 14:00:00 16,1 9,3 34 18 52 28 NNE -
17.06.2018 13:00:00 16,3 8,5 29 16 54 29 NNE 0,0
17.06.2018 12:00:00 14,7 6,0 29 16 50 27 NNE 0,0
17.06.2018 11:00:00 13,7 7,2 11 6 22 12 NNE 0,0
17.06.2018 10:00:00 11,3 6,8 8 4 34 18 NNE 0,0
17.06.2018 09:00:00 7,5 6,1 4 2 13 7 NE 0,0
17.06.2018 08:00:00 4,7 4,0 2 1 13 7 SE -
17.06.2018 07:00:00 3,2 1,2 9 5 18 10 W 0,0
17.06.2018 06:00:00 3,8 1,7 11 6 18 10 WSW 0,0
17.06.2018 05:00:00 4,6 2,6 11 6 18 10 WSW 0,0
17.06.2018 04:00:00 4,5 2,7 11 6 24 13 WSW 0,0
17.06.2018 03:00:00 5,4 3,9 11 6 21 11 WSW 0,0
17.06.2018 02:00:00 7,4 6,2 11 6 26 14 N -
17.06.2018 01:00:00 8,1 7,0 16 9 28 15 N 0,0
17.06.2018 00:00:00 8,1 7,2 11 6 31 17 N 0,0
16.06.2018 23:00:00 8,8 8,0 16 9 31 17 N 0,0
16.06.2018 22:00:00 9,3 8,5 13 7 28 15 NNE 0,0
16.06.2018 21:00:00 9,7 8,6 13 7 35 19 N 0,0
16.06.2018 20:00:00 10,4 9,6 18 10 39 21 N -
16.06.2018 19:00:00 10,7 9,9 22 12 35 19 N 0,0
16.06.2018 18:00:00 10,8 10,0 15 8 34 18 NNE 0,0
16.06.2018 17:00:00 10,9 10,1 22 12 41 22 NNE 0,0
16.06.2018 16:00:00 11,8 9,9 24 13 42 23 NNE 0,0
16.06.2018 15:00:00 12,8 11,4 15 8 39 21 NNE 0,0
16.06.2018 14:00:00 12,1 10,0 28 15 41 22 NNE -
16.06.2018 13:00:00 15,5 10,3 22 12 39 21 N 0,0
16.06.2018 12:00:00 16,1 10,0 18 10 39 21 NNE 0,0
16.06.2018 11:00:00 15,3 9,0 22 12 39 21 NNE 0,0
16.06.2018 10:00:00 14,5 8,7 21 11 41 22 NNE 0,0
16.06.2018 09:00:00 13,5 7,9 21 11 52 28 NNE 0,0
16.06.2018 08:00:00 9,5 6,0 13 7 37 20 N -
16.06.2018 07:00:00 7,1 5,1 9 5 18 10 N 0,0
16.06.2018 06:00:00 5,3 3,6 13 7 22 12 W 0,0
16.06.2018 05:00:00 7,4 5,2 9 5 24 13 NNW 0,0
16.06.2018 04:00:00 8,2 6,5 13 7 24 13 N 0,0
16.06.2018 03:00:00 8,5 6,8 16 9 29 16 N 0,0
16.06.2018 02:00:00 8,4 6,5 15 8 29 16 N -
16.06.2018 01:00:00 8,3 6,1 15 8 31 17 N 0,0
16.06.2018 00:00:00 8,6 6,2 21 11 29 16 N 0,0
15.06.2018 23:00:00 9,3 6,4 16 9 35 19 NW 0,0
15.06.2018 22:00:00 9,0 7,3 15 8 29 16 NNW 0,0
15.06.2018 21:00:00 10,2 7,6 15 8 28 15 N 0,0
15.06.2018 20:00:00 10,5 9,4 15 8 29 16 NNE -
15.06.2018 19:00:00 10,3 9,5 16 9 41 22 N 0,0
15.06.2018 18:00:00 10,5 9,7 24 13 41 22 N 0,0
15.06.2018 17:00:00 11,4 9,6 18 10 29 16 NNE 0,0
15.06.2018 16:00:00 13,0 9,6 15 8 29 16 N 0,0
15.06.2018 15:00:00 13,2 9,1 21 11 37 20 NNE 0,0
15.06.2018 14:00:00 14,3 7,8 24 13 37 20 N -
15.06.2018 13:00:00 13,7 8,1 22 12 39 21 N 0,0
15.06.2018 12:00:00 11,8 7,5 22 12 41 22 N 0,0
15.06.2018 11:00:00 11,6 7,3 22 12 34 18 N 0,0
15.06.2018 10:00:00 10,8 6,5 15 8 35 19 N 0,0
15.06.2018 09:00:00 10,1 6,6 16 9 35 19 NNW 0,0
15.06.2018 08:00:00 8,7 7,1 5 3 22 12 E -
15.06.2018 07:00:00 8,2 6,8 9 5 24 13 NNW 0,0
15.06.2018 06:00:00 7,8 6,3 16 9 34 18 N 0,0
15.06.2018 05:00:00 7,9 5,5 9 5 29 16 NNW 0,0
15.06.2018 04:00:00 7,8 5,9 18 10 34 18 N 0,0
15.06.2018 03:00:00 8,2 5,5 15 8 39 21 N 0,0
15.06.2018 02:00:00 8,3 5,8 21 11 37 20 N -
15.06.2018 01:00:00 8,6 6,7 22 12 46 25 N 0,0
15.06.2018 00:00:00 8,4 6,9 22 12 39 21 N 0,0
14.06.2018 23:00:00 9,0 7,3 15 8 37 20 N 0,0
14.06.2018 22:00:00 9,2 7,5 16 9 37 20 N 0,0
14.06.2018 21:00:00 10,0 7,1 15 8 41 22 N 0,0
14.06.2018 20:00:00 12,2 7,5 22 12 46 25 NNE -
14.06.2018 19:00:00 11,7 7,6 24 13 48 26 NNE 0,0
14.06.2018 18:00:00 11,7 7,0 29 16 59 32 NNE 0,0
14.06.2018 17:00:00 13,4 7,4 31 17 52 28 NNE 0,0
14.06.2018 16:00:00 14,7 7,7 26 14 52 28 NNE 0,0
14.06.2018 15:00:00 15,0 6,3 28 15 55 30 NNE 0,0
14.06.2018 14:00:00 14,6 6,9 29 16 63 34 NNE -
14.06.2018 13:00:00 13,4 6,5 34 18 61 33 NNE 0,0
14.06.2018 12:00:00 12,7 5,6 34 18 63 34 NNE 0,0
14.06.2018 11:00:00 12,1 5,5 29 16 59 32 NNE 0,0
14.06.2018 10:00:00 11,0 5,9 26 14 52 28 NNE 0,0
14.06.2018 09:00:00 10,0 7,1 26 14 46 25 N 0,0

tt = Température de l'air
td = dewpoint
ff = Vitesse du vent
fx = gusts
dd = Direction du vent
rr = Quantités de précipitations

stations d'obs. à proximité